Ratari, Serbia
Current Conditions -  °F | °C
As of 5:30 PM on Saturday 25 Oct 2014 (Local Time) from LYKV Reporting Station
Broken Clouds Broken Clouds  
Wind Chill: 38°   Ceiling: 3300
Heat Index: 41°   Visibility: 6mi
Dew Point: 41°   Wind: 5mph
Humidity: 100%   Direction: 150°SSE
Pressure: 30.27"   Gusts: NA
Location:  44.36°N, 20.84°E
Report Text: LYKV 251530Z 15004KT 9999 SCT013 BKN033 05/05 Q1025 NOSIG
Loading
Personal Weather Stations






























Interactive Weather Map
Tropical Storm Tracking
New forecast layout! Learn more

10-Day Weather Forecast

Advertisements
Track Severe Weather on mobile